Tebessa, Cheikh Larbi Tébessi Airport (DABS)

NameCheikh Larbi Tébessi Airport
CityTebessa
CountryAlgeria
ICAODABS
IATATEE
Altitude811 m
CoordinatesGoogle Map
Live Air TrafficLiveATC.net
METARDABS 180100Z 10004KT CAVOK 01/M03 Q1017
2019-01-18 01:00:00 Wind: East (100°) 2.06 m/s - Visibility: > 10000 m - Weather: CAVOK - Temperature: 1 °C - Dew point: -3 °C - Humidity: 74.9% - Pressure: 1017 hPa
Statistics

The table below shows the detailed information of all flights to/from Tebessa, Cheikh Larbi Tébessi Airport (DABS).